Agat, Guam
Current Conditions -  °F | °C
As of 12:54 AM on Tuesday 25 Nov 2014 (Local Time) from PGUM Reporting Station
Overcast Overcast  
Wind Chill: 77°   Ceiling: 6000
Heat Index: 78°   Visibility: 10mi
Dew Point: 75°   Wind: 0mph
Humidity: 94%   Direction: NA
Pressure: 29.87"   Gusts: NA
Location:  13.38°N, 144.65°E
Report Text: PGUM 241454Z 00000KT 10SM OVC060 25/24 A2987 RMK AO2 RAE20 SLP108 P0003 60014 T02500239 58009
Loading
Personal Weather Stations






























Interactive Weather Map New forecast layout! Learn more

10-Day Weather Forecast

Advertisements
Track Severe Weather on mobile